Time;durP1;ratioP1;P1;durP2;ratioP2;P2;SDS_P1;SDS_P2;PMS_P1;PMS_P2;Temp;Humidity;BMP_temperature;BMP_pressure;BME280_temperature;BME280_humidity;BME280_pressure;Samples;Min_cycle;Max_cycle;Signal;HPM_P1;HPM_P2
2021/08/13 00:02:00;;;;;;;15.63;10.25;;;;;;;17.41;78.66;102117.03;4977245;28;20028;-71
2021/08/13 00:04:26;;;;;;;14.27;9.45;;;;;;;17.41;78.13;102112.63;4987810;28;20022;-70
2021/08/13 00:06:51;;;;;;;18.40;10.85;;;;;;;17.41;78.61;102109.09;4969061;28;20030;-70
2021/08/13 00:09:18;;;;;;;17.52;10.88;;;;;;;17.40;78.08;102120.63;4980531;28;20022;-70
2021/08/13 00:11:43;;;;;;;15.35;10.18;;;;;;;17.42;77.89;102119.63;4970766;28;20527;-70
2021/08/13 00:14:09;;;;;;;18.48;11.63;;;;;;;17.42;78.30;102118.78;4964458;28;20098;-70
2021/08/13 00:16:35;;;;;;;17.25;10.65;;;;;;;17.43;77.95;102118.69;4978575;28;20401;-70
2021/08/13 00:19:01;;;;;;;14.82;10.35;;;;;;;17.45;78.03;102128.38;4976734;28;20026;-70
2021/08/13 00:21:26;;;;;;;18.42;11.32;;;;;;;17.43;78.03;102124.00;4988158;28;20042;-71
2021/08/13 00:23:52;;;;;;;20.05;11.95;;;;;;;17.37;78.49;102126.06;4975792;28;20025;-71
2021/08/13 00:26:17;;;;;;;18.52;11.57;;;;;;;17.30;78.49;102128.09;4992409;28;20034;-71
2021/08/13 00:28:42;;;;;;;16.10;11.02;;;;;;;17.26;79.13;102137.94;4978398;28;20642;-71
2021/08/13 00:31:08;;;;;;;16.23;10.93;;;;;;;17.24;79.21;102134.53;4990809;28;20034;-71
2021/08/13 00:33:33;;;;;;;16.48;11.00;;;;;;;17.19;79.21;102144.44;4990640;28;20014;-71
2021/08/13 00:35:58;;;;;;;17.98;11.20;;;;;;;17.15;79.30;102139.31;4973415;28;20031;-70
2021/08/13 00:38:24;;;;;;;15.63;11.15;;;;;;;17.11;79.67;102141.22;4985932;28;20468;-71
2021/08/13 00:40:49;;;;;;;20.23;11.73;;;;;;;17.07;79.31;102140.47;4990703;28;20022;-70
2021/08/13 00:43:14;;;;;;;18.17;11.75;;;;;;;17.08;79.40;102136.06;4991288;28;20069;-70
2021/08/13 00:45:40;;;;;;;17.40;10.82;;;;;;;17.03;79.47;102140.66;4975139;28;20053;-71
2021/08/13 00:48:05;;;;;;;18.27;11.40;;;;;;;16.99;80.03;102131.97;4982810;28;20042;-71
2021/08/13 00:50:31;;;;;;;15.68;11.50;;;;;;;16.93;80.21;102141.03;4986475;28;20026;-71
2021/08/13 00:52:57;;;;;;;17.92;11.05;;;;;;;16.92;80.19;102138.44;4985603;28;20081;-71
2021/08/13 00:55:23;;;;;;;16.70;11.43;;;;;;;16.89;80.28;102134.09;4971365;28;20117;-70
2021/08/13 00:57:48;;;;;;;17.75;11.20;;;;;;;16.88;80.26;102139.44;4984061;28;20022;-70
2021/08/13 01:00:14;;;;;;;16.08;11.00;;;;;;;16.85;80.26;102143.06;4978945;28;20039;-71
2021/08/13 01:02:39;;;;;;;16.20;10.27;;;;;;;16.85;80.08;102142.22;4987397;28;20026;-71
2021/08/13 01:05:05;;;;;;;15.00;9.55;;;;;;;16.85;79.92;102140.44;4990874;28;20026;-71
2021/08/13 01:07:30;;;;;;;15.15;9.73;;;;;;;16.85;79.35;102145.72;4976868;28;20391;-70
2021/08/13 01:09:56;;;;;;;12.65;8.82;;;;;;;16.86;79.52;102142.16;4984732;28;20030;-71
2021/08/13 01:12:30;;;;;;;13.30;8.43;;;;;;;16.86;79.56;102147.47;4985628;28;20022;-71
2021/08/13 01:14:55;;;;;;;;;;;;;;;16.86;79.62;102149.25;4972734;28;20022;-70
2021/08/13 01:17:21;;;;;;;12.25;7.20;;;;;;;16.88;78.74;102150.91;4970117;28;19917;-71
2021/08/13 01:19:56;;;;;;;14.98;7.57;;;;;;;16.90;79.32;102148.22;4971523;28;20033;-70
2021/08/13 01:22:24;;;;;;;11.35;7.75;;;;;;;16.90;78.94;102153.50;4967515;28;20400;-70
2021/08/13 01:24:51;;;;;;;12.40;6.47;;;;;;;16.89;78.48;102150.00;4971463;28;20033;-71
2021/08/13 01:27:19;;;;;;;10.32;7.03;;;;;;;16.89;78.61;102155.31;4970521;28;20022;-71
2021/08/13 01:30:05;;;;;;;12.77;7.00;;;;;;;16.83;79.13;102158.19;4971800;28;20548;-71
2021/08/13 01:32:54;;;;;;;13.02;7.88;;;;;;;16.85;79.18;102158.13;4986642;28;20037;-70
2021/08/13 01:35:30;;;;;;;9.95;6.38;;;;;;;16.81;79.10;102148.53;4966799;28;20102;-70
2021/08/13 01:38:03;;;;;;;9.63;6.70;;;;;;;16.78;79.89;102150.41;4959275;28;20506;-70
2021/08/13 01:40:29;;;;;;;11.10;6.65;;;;;;;16.79;79.49;102140.66;4969422;28;20037;-70
2021/08/13 01:42:55;;;;;;;9.95;6.45;;;;;;;16.80;79.47;102147.69;4970201;28;20031;-70
2021/08/13 01:45:27;;;;;;;11.38;7.10;;;;;;;16.80;79.21;102146.84;4970111;28;20170;-70
2021/08/13 01:47:54;;;;;;;8.98;6.25;;;;;;;16.79;79.67;102145.97;4970098;28;20026;-71
2021/08/13 01:50:21;;;;;;;10.18;6.63;;;;;;;16.75;79.73;102139.06;4971252;28;20085;-70
2021/08/13 01:52:47;;;;;;;7.70;5.80;;;;;;;16.73;79.58;102143.53;4986387;28;20025;-71
2021/08/13 01:55:13;;;;;;;9.38;6.10;;;;;;;16.73;79.92;102143.53;4970592;28;20058;-71
2021/08/13 01:57:39;;;;;;;10.55;6.30;;;;;;;16.72;79.83;102150.66;4971095;28;20117;-71
2021/08/13 02:00:06;;;;;;;8.20;5.40;;;;;;;16.69;79.94;102144.59;4972123;28;20445;-70
2021/08/13 02:02:34;;;;;;;8.75;6.00;;;;;;;16.69;80.53;102155.19;4982437;28;20094;-70
2021/08/13 02:05:01;;;;;;;11.80;5.40;;;;;;;16.67;80.03;102157.91;4986435;28;20030;-71
2021/08/13 02:07:27;;;;;;;9.38;6.25;;;;;;;16.65;80.60;102154.44;4969609;28;20117;-69
2021/08/13 02:09:52;;;;;;;9.48;5.40;;;;;;;16.65;80.77;102153.59;4969578;28;20081;-70
2021/08/13 02:12:18;;;;;;;10.23;6.22;;;;;;;16.63;80.73;102148.31;4971152;28;20018;-70
2021/08/13 02:14:43;;;;;;;9.52;5.82;;;;;;;16.58;81.28;102143.22;4971134;28;20114;-70
2021/08/13 02:17:14;;;;;;;11.38;6.10;;;;;;;16.55;81.15;102143.31;4969757;28;20455;-70
2021/08/13 02:19:45;;;;;;;9.75;6.20;;;;;;;16.54;81.60;102144.25;4985177;28;20101;-71
2021/08/13 02:22:10;;;;;;;9.88;5.35;;;;;;;16.52;81.61;102140.81;4969849;28;20073;-71
2021/08/13 02:24:35;;;;;;;8.07;5.60;;;;;;;16.51;81.30;102141.72;4966048;28;20027;-70
2021/08/13 02:27:01;;;;;;;9.40;5.25;;;;;;;16.50;81.14;102147.09;4971088;28;20387;-70
2021/08/13 02:29:27;;;;;;;9.73;5.32;;;;;;;16.46;82.00;102151.63;4968552;28;20022;-70
2021/08/13 02:31:52;;;;;;;7.88;5.07;;;;;;;16.43;81.89;102147.31;4977509;28;20049;-70
2021/08/13 02:34:17;;;;;;;8.23;5.05;;;;;;;16.41;82.30;102150.91;4969117;28;20018;-71
2021/08/13 02:36:49;;;;;;;9.65;5.47;;;;;;;16.40;82.09;102143.91;4970946;28;20034;-71
2021/08/13 02:39:30;;;;;;;6.95;4.85;;;;;;;16.39;82.06;102158.06;4970822;28;20102;-70
2021/08/13 02:41:59;;;;;;;8.70;4.90;;;;;;;16.40;82.50;102160.66;4970008;28;20026;-71
2021/08/13 02:44:27;;;;;;;7.97;5.25;;;;;;;16.39;82.76;102150.13;4969166;28;20058;-71
2021/08/13 02:46:55;;;;;;;9.25;5.18;;;;;;;16.39;82.80;102147.47;4969369;28;20018;-70
2021/08/13 02:49:21;;;;;;;8.30;4.70;;;;;;;16.39;82.97;102158.06;4969081;28;20038;-71
2021/08/13 02:51:48;;;;;;;8.73;5.20;;;;;;;16.41;82.85;102148.25;4969818;28;20014;-71
2021/08/13 02:54:21;;;;;;;11.32;4.50;;;;;;;16.39;82.81;102145.66;4968956;28;20066;-71
2021/08/13 02:56:49;;;;;;;8.40;5.28;;;;;;;16.37;83.08;102155.47;4970768;28;20030;-70
2021/08/13 02:59:17;;;;;;;8.70;5.25;;;;;;;16.38;82.86;102151.88;4967847;28;20035;-70
2021/08/13 03:01:43;;;;;;;8.70;5.03;;;;;;;16.39;82.83;102147.47;4968682;28;20121;-71
2021/08/13 03:04:09;;;;;;;7.40;4.72;;;;;;;16.37;83.11;102150.19;4969491;28;20034;-70
2021/08/13 03:06:37;;;;;;;8.18;4.60;;;;;;;16.39;83.18;102152.75;4970210;28;20502;-70
2021/08/13 03:09:03;;;;;;;6.95;4.95;;;;;;;16.39;82.95;102168.66;4969462;28;20428;-71
2021/08/13 03:11:29;;;;;;;7.78;4.97;;;;;;;16.37;82.78;102159.88;4969828;28;20049;-71
2021/08/13 03:13:54;;;;;;;8.73;4.95;;;;;;;16.35;83.07;102169.66;4958546;28;20037;-71
2021/08/13 03:16:20;;;;;;;8.30;5.15;;;;;;;16.34;83.25;102165.31;4969907;28;20106;-71
2021/08/13 03:18:45;;;;;;;8.00;5.38;;;;;;;16.30;83.36;102165.41;4969464;28;20078;-71
2021/08/13 03:21:13;;;;;;;9.93;5.28;;;;;;;16.26;83.33;102161.16;4968591;28;20031;-70
2021/08/13 03:23:39;;;;;;;9.43;5.15;;;;;;;16.23;83.27;102155.94;4968004;28;20026;-70
2021/08/13 03:26:06;;;;;;;9.57;4.90;;;;;;;16.19;84.12;102151.69;4977897;28;20473;-71
2021/08/13 03:28:31;;;;;;;8.70;5.38;;;;;;;16.16;84.38;102146.50;4975428;28;20027;-70
2021/08/13 03:30:56;;;;;;;8.60;5.20;;;;;;;16.15;84.41;102150.09;4971237;28;20042;-71
2021/08/13 03:33:22;;;;;;;8.98;5.40;;;;;;;16.16;84.83;102146.50;4970108;28;20093;-71
2021/08/13 03:35:49;;;;;;;9.45;4.78;;;;;;;16.15;84.74;102136.84;4968508;28;20034;-71
2021/08/13 03:38:14;;;;;;;9.60;4.82;;;;;;;16.13;84.99;102142.19;4984573;28;20392;-70
2021/08/13 03:40:39;;;;;;;7.85;5.22;;;;;;;16.15;85.08;102136.84;4970005;28;20031;-71
2021/08/13 03:43:05;;;;;;;9.50;5.18;;;;;;;16.15;85.11;102134.19;4982017;28;20503;-70
2021/08/13 03:45:30;;;;;;;9.77;5.15;;;;;;;16.13;85.16;102128.09;4982014;28;20026;-70
2021/08/13 03:47:55;;;;;;;7.78;4.75;;;;;;;16.10;84.70;102131.72;4984245;28;20472;-70
2021/08/13 03:50:21;;;;;;;8.07;5.05;;;;;;;16.08;85.37;102137.97;4968906;28;20121;-71
2021/08/13 03:52:46;;;;;;;7.88;5.22;;;;;;;16.06;85.76;102124.81;4968882;28;20376;-71
2021/08/13 03:55:13;;;;;;;9.57;5.50;;;;;;;16.05;85.47;102128.38;4977477;28;20161;-70
2021/08/13 03:57:40;;;;;;;9.05;5.57;;;;;;;16.02;85.79;102133.75;4972708;28;20062;-71
2021/08/13 04:00:06;;;;;;;11.85;5.93;;;;;;;16.04;85.24;102136.34;4986739;28;20022;-71
2021/08/13 04:02:31;;;;;;;8.75;5.47;;;;;;;16.03;85.71;102130.19;4988092;28;20109;-71
2021/08/13 04:04:56;;;;;;;12.98;5.90;;;;;;;15.97;86.15;102133.91;4970565;28;20131;-70
2021/08/13 04:07:21;;;;;;;10.35;6.15;;;;;;;15.96;85.91;102133.97;4978755;28;20034;-70
2021/08/13 04:09:47;;;;;;;9.40;6.15;;;;;;;15.95;86.25;102146.34;4991585;28;20027;-70
2021/08/13 04:12:12;;;;;;;10.35;6.03;;;;;;;15.93;86.10;102148.19;4969323;28;20026;-70
2021/08/13 04:14:37;;;;;;;9.13;5.40;;;;;;;15.96;85.98;102148.09;4971103;28;20034;-69
2021/08/13 04:17:03;;;;;;;10.90;6.10;;;;;;;15.96;86.01;102148.09;4973543;28;20427;-70
2021/08/13 04:19:28;;;;;;;13.48;6.20;;;;;;;15.98;86.20;102153.31;4968786;28;20022;-70
2021/08/13 04:21:54;;;;;;;11.52;6.20;;;;;;;15.97;86.27;102151.59;4967784;28;20512;-71
2021/08/13 04:24:19;;;;;;;11.13;6.10;;;;;;;15.94;86.66;102152.56;4964721;28;20121;-70
2021/08/13 04:26:44;;;;;;;10.20;6.00;;;;;;;15.92;86.71;102151.72;4985525;28;20022;-70
2021/08/13 04:29:10;;;;;;;10.57;5.82;;;;;;;15.91;86.78;102160.59;4975258;28;20018;-70
2021/08/13 04:31:35;;;;;;;8.88;6.20;;;;;;;15.89;86.71;102151.84;4984842;28;20399;-70
2021/08/13 04:34:00;;;;;;;11.95;7.35;;;;;;;15.88;86.92;102155.41;4969817;28;20105;-70
2021/08/13 04:36:27;;;;;;;9.88;6.03;;;;;;;15.88;86.76;102151.91;4968326;28;20138;-70
2021/08/13 04:38:53;;;;;;;12.77;6.65;;;;;;;15.87;86.91;102152.81;4971133;28;20365;-70
2021/08/13 04:41:18;;;;;;;10.35;6.30;;;;;;;15.88;87.02;102146.63;4979454;28;20029;-70
2021/08/13 04:43:43;;;;;;;10.27;6.60;;;;;;;15.86;87.07;102138.72;4969033;28;20468;-70
2021/08/13 04:46:09;;;;;;;11.48;6.95;;;;;;;15.78;86.80;102141.59;4987847;28;20026;-71
2021/08/13 04:48:34;;;;;;;11.82;7.65;;;;;;;15.80;87.25;102141.53;4988395;28;20444;-71
2021/08/13 04:50:59;;;;;;;11.75;6.88;;;;;;;15.83;87.17;102138.84;4974234;28;20077;-71
2021/08/13 04:53:24;;;;;;;10.30;6.53;;;;;;;15.90;86.66;102143.00;4985184;28;20034;-70
2021/08/13 04:55:50;;;;;;;11.40;6.85;;;;;;;15.95;86.61;102145.47;4981140;28;20174;-70
2021/08/13 04:58:15;;;;;;;11.10;7.28;;;;;;;15.96;86.64;102140.16;4968789;28;21617;-70
2021/08/13 05:00:41;;;;;;;11.07;6.43;;;;;;;15.99;86.49;102144.47;4976871;28;20439;-70
2021/08/13 05:03:06;;;;;;;12.75;7.13;;;;;;;16.03;86.53;102146.06;4969324;28;20058;-70
2021/08/13 05:05:32;;;;;;;14.70;7.35;;;;;;;16.09;87.02;102143.22;4983386;28;20039;-70
2021/08/13 05:07:57;;;;;;;14.70;7.35;;;;;;;16.15;86.35;102152.72;4967368;28;20023;-70
2021/08/13 05:10:22;;;;;;;13.45;7.30;;;;;;;16.20;85.76;102144.59;4970554;28;20049;-71
2021/08/13 05:12:48;;;;;;;11.80;7.38;;;;;;;16.28;85.67;102156.66;4979219;28;20014;-71
2021/08/13 05:15:14;;;;;;;12.90;7.75;;;;;;;16.36;85.41;102151.09;4984103;28;20019;-70
2021/08/13 05:17:39;;;;;;;10.23;7.05;;;;;;;16.43;85.25;102154.38;4971726;28;20062;-70
2021/08/13 05:20:06;;;;;;;13.93;7.20;;;;;;;16.47;85.01;102155.97;4987101;28;20027;-72
2021/08/13 05:22:33;;;;;;;13.25;6.82;;;;;;;16.53;85.04;102139.84;4971370;28;20031;-71
2021/08/13 05:25:08;;;;;;;15.73;7.65;;;;;;;16.58;84.73;102140.56;4970670;28;20025;-69
2021/08/13 05:27:33;;;;;;;12.57;7.40;;;;;;;16.65;84.19;102148.28;4971597;28;20037;-70
2021/08/13 05:29:59;;;;;;;16.17;6.93;;;;;;;16.70;84.12;102147.19;4970812;28;20102;-70
2021/08/13 05:32:24;;;;;;;12.98;7.50;;;;;;;16.69;84.36;102155.19;4973576;28;20026;-71
2021/08/13 05:34:52;;;;;;;13.05;7.30;;;;;;;16.70;84.45;102157.78;4969547;28;20488;-71
2021/08/13 05:37:18;;;;;;;12.50;7.00;;;;;;;16.76;84.19;102156.69;4969848;28;20031;-71
2021/08/13 05:39:44;;;;;;;13.80;7.60;;;;;;;16.77;84.37;102155.78;4970141;28;20380;-71
2021/08/13 05:42:09;;;;;;;16.05;8.30;;;;;;;16.77;84.51;102148.69;4970303;28;20161;-71
2021/08/13 05:44:35;;;;;;;17.48;7.57;;;;;;;16.78;84.48;102155.72;4976526;28;20033;-71
2021/08/13 05:47:00;;;;;;;11.93;7.38;;;;;;;16.83;84.60;102163.50;4980987;28;20029;-70
2021/08/13 05:49:26;;;;;;;12.20;6.93;;;;;;;16.82;84.47;102167.06;4998588;28;20280;-70
2021/08/13 05:51:51;;;;;;;10.85;6.55;;;;;;;16.82;84.55;102163.53;4981988;28;20011;-72
2021/08/13 05:54:16;;;;;;;15.07;7.07;;;;;;;16.83;84.54;102163.50;4984530;28;20019;-71
2021/08/13 05:56:42;;;;;;;15.07;7.80;;;;;;;16.89;84.31;102170.31;4981774;28;20063;-71
2021/08/13 05:59:07;;;;;;;13.23;7.13;;;;;;;16.92;84.61;102176.41;4999417;28;20053;-70
2021/08/13 06:01:32;;;;;;;14.40;6.88;;;;;;;16.98;84.26;102177.09;4971610;28;20534;-70
2021/08/13 06:03:58;;;;;;;11.52;7.05;;;;;;;17.03;84.07;102180.41;4991115;28;20027;-71
2021/08/13 06:06:23;;;;;;;13.32;7.07;;;;;;;17.12;83.78;102179.19;4971113;28;20023;-71
2021/08/13 06:08:48;;;;;;;12.35;6.30;;;;;;;17.16;83.06;102188.78;4969722;28;20019;-72
2021/08/13 06:11:14;;;;;;;15.23;6.90;;;;;;;17.19;83.46;102189.53;4970596;28;20420;-70
2021/08/13 06:13:39;;;;;;;14.95;6.10;;;;;;;17.25;82.80;102186.63;4969986;28;20046;-71
2021/08/13 06:16:05;;;;;;;11.07;5.95;;;;;;;17.32;83.16;102187.22;4970874;28;20027;-72
2021/08/13 06:18:30;;;;;;;14.48;6.68;;;;;;;17.34;82.24;102187.16;4969624;28;20022;-70
2021/08/13 06:20:55;;;;;;;14.90;6.60;;;;;;;17.34;82.65;102193.34;4969320;28;20023;-71
2021/08/13 06:23:21;;;;;;;16.33;7.25;;;;;;;17.36;82.95;102186.19;4975378;28;20023;-71
2021/08/13 06:25:46;;;;;;;14.02;5.90;;;;;;;17.39;82.68;102182.53;4978732;28;20026;-71
2021/08/13 06:28:12;;;;;;;12.88;6.43;;;;;;;17.43;82.53;102198.28;4970985;28;20526;-70
2021/08/13 06:30:37;;;;;;;13.38;6.05;;;;;;;17.48;82.08;102198.09;4987774;28;20058;-71
2021/08/13 06:33:02;;;;;;;9.68;5.38;;;;;;;17.57;81.72;102203.00;4975612;28;20030;-71
2021/08/13 06:35:28;;;;;;;13.25;6.00;;;;;;;17.64;81.48;102201.00;4984722;28;20085;-71
2021/08/13 06:37:54;;;;;;;13.18;5.85;;;;;;;17.72;80.92;102204.19;4979657;28;20213;-71
2021/08/13 06:40:21;;;;;;;12.18;5.88;;;;;;;17.89;80.77;102214.09;4980439;28;20486;-71
2021/08/13 06:42:46;;;;;;;12.20;5.25;;;;;;;18.04;79.56;102215.25;4969488;28;20030;-70
2021/08/13 06:45:14;;;;;;;10.48;5.20;;;;;;;18.13;78.47;102214.00;4969118;28;20169;-71
2021/08/13 06:47:39;;;;;;;10.32;4.93;;;;;;;18.20;78.07;102215.47;4969605;28;20180;-71
2021/08/13 06:50:05;;;;;;;11.05;4.32;;;;;;;18.24;77.38;102226.81;4983057;28;20468;-71
2021/08/13 06:52:31;;;;;;;8.43;4.22;;;;;;;18.25;77.14;102223.25;4985758;28;20483;-70
2021/08/13 06:54:56;;;;;;;11.43;4.75;;;;;;;18.18;76.19;102229.75;4974706;28;20037;-70
2021/08/13 06:57:22;;;;;;;10.10;4.00;;;;;;;18.13;76.38;102226.44;4977319;28;20027;-71
2021/08/13 06:59:47;;;;;;;8.77;3.97;;;;;;;18.13;75.42;102237.91;4972535;28;20113;-71
2021/08/13 07:02:12;;;;;;;10.43;4.28;;;;;;;18.11;74.44;102234.47;4967634;28;20037;-71
2021/08/13 07:04:38;;;;;;;14.30;4.57;;;;;;;18.18;74.81;102230.63;4973980;28;20454;-70
2021/08/13 07:07:03;;;;;;;8.43;3.75;;;;;;;18.33;73.54;102231.75;4974697;28;20019;-70
2021/08/13 07:09:28;;;;;;;9.57;3.78;;;;;;;18.39;72.73;102235.91;4978069;28;20160;-70
2021/08/13 07:11:54;;;;;;;11.65;4.20;;;;;;;18.50;71.89;102230.13;4976387;28;20468;-71
2021/08/13 07:14:19;;;;;;;10.10;4.03;;;;;;;18.49;70.50;102228.41;4975148;28;20140;-70
2021/08/13 07:16:44;;;;;;;10.20;3.70;;;;;;;18.50;70.12;102220.34;4981360;28;20026;-70
2021/08/13 07:19:10;;;;;;;11.68;4.03;;;;;;;18.64;69.97;102232.16;4961781;28;20026;-71
2021/08/13 07:21:35;;;;;;;8.77;3.45;;;;;;;18.81;68.90;102245.56;4968793;28;20126;-70
2021/08/13 07:24:00;;;;;;;7.63;3.33;;;;;;;18.92;68.66;102225.66;4969045;28;20026;-71
2021/08/13 07:26:26;;;;;;;11.20;3.65;;;;;;;19.05;68.01;102216.13;4969540;28;20037;-72
2021/08/13 07:28:51;;;;;;;8.25;3.75;;;;;;;19.11;67.96;102231.81;4966961;28;20060;-70
2021/08/13 07:31:16;;;;;;;9.38;3.60;;;;;;;19.19;67.60;102260.72;4969319;28;20026;-71
2021/08/13 07:33:42;;;;;;;7.30;3.50;;;;;;;19.10;67.21;102256.69;4968473;28;20429;-70
2021/08/13 07:36:07;;;;;;;7.32;3.60;;;;;;;19.08;67.95;102265.69;4968886;28;20030;-71
2021/08/13 07:38:39;;;;;;;7.03;3.53;;;;;;;19.23;67.35;102269.44;4964760;28;20026;-71
2021/08/13 07:41:08;;;;;;;8.80;3.97;;;;;;;19.46;66.94;102258.56;4963646;28;20463;-71
2021/08/13 07:43:33;;;;;;;10.02;3.88;;;;;;;19.39;67.21;102246.47;4969426;28;20050;-72
2021/08/13 07:45:59;;;;;;;7.97;3.45;;;;;;;19.31;67.74;102256.59;4968095;28;20527;-70
2021/08/13 07:48:24;;;;;;;6.03;2.97;;;;;;;19.13;67.09;102247.72;4969830;28;20722;-71
2021/08/13 07:50:50;;;;;;;6.15;3.22;;;;;;;19.07;67.91;102243.53;4968763;28;20023;-70
2021/08/13 07:53:15;;;;;;;9.25;3.50;;;;;;;18.97;68.65;102251.06;4969454;28;20050;-70
2021/08/13 07:55:40;;;;;;;10.02;3.72;;;;;;;19.16;68.06;102255.53;4967632;28;20027;-70
2021/08/13 07:58:06;;;;;;;6.53;3.40;;;;;;;19.29;67.40;102255.84;4969319;28;20026;-71
2021/08/13 08:00:31;;;;;;;9.32;3.38;;;;;;;19.39;67.03;102273.06;4969028;28;20054;-71
2021/08/13 08:02:56;;;;;;;8.85;3.30;;;;;;;19.54;66.40;102268.81;4968610;28;20054;-71
2021/08/13 08:05:22;;;;;;;10.07;4.10;;;;;;;19.95;64.80;102254.44;4969128;28;20481;-71
2021/08/13 08:07:47;;;;;;;8.88;3.35;;;;;;;20.27;64.32;102246.63;4952028;28;20046;-71
2021/08/13 08:10:12;;;;;;;11.27;3.22;;;;;;;20.63;62.14;102250.97;4968484;28;20698;-71
2021/08/13 08:12:38;;;;;;;7.65;3.90;;;;;;;20.83;61.62;102259.72;4965746;28;20396;-71
2021/08/13 08:15:03;;;;;;;8.80;4.13;;;;;;;21.04;61.61;102258.56;4965831;28;20077;-70
2021/08/13 08:17:29;;;;;;;8.55;3.45;;;;;;;21.52;60.08;102255.03;4968589;28;20030;-71
2021/08/13 08:19:55;;;;;;;8.25;3.40;;;;;;;21.79;59.64;102263.28;4968761;28;20069;-69
2021/08/13 08:22:20;;;;;;;11.48;3.47;;;;;;;21.90;59.28;102270.69;4964028;28;20104;-70
2021/08/13 08:24:45;;;;;;;7.75;3.47;;;;;;;21.75;59.57;102273.28;4968921;28;20027;-70
2021/08/13 08:27:11;;;;;;;8.40;3.65;;;;;;;21.51;60.58;102285.31;4967957;28;20094;-70
2021/08/13 08:29:36;;;;;;;15.23;4.35;;;;;;;21.37;60.71;102278.97;4967306;28;20041;-70
2021/08/13 08:32:01;;;;;;;10.18;3.53;;;;;;;21.64;60.32;102286.38;4979947;28;20021;-70
2021/08/13 08:34:27;;;;;;;11.60;3.40;;;;;;;21.82;58.58;102288.94;4978586;28;20038;-70
2021/08/13 08:36:52;;;;;;;9.68;3.88;;;;;;;21.97;57.38;102271.16;4993472;28;20426;-71
2021/08/13 08:39:17;;;;;;;8.00;3.00;;;;;;;22.63;55.21;102280.63;4969237;28;20030;-71
2021/08/13 08:41:44;;;;;;;6.68;3.50;;;;;;;22.58;54.90;102287.22;4968422;28;20031;-71
2021/08/13 08:44:09;;;;;;;11.65;3.72;;;;;;;22.58;54.68;102296.09;4971205;28;20030;-70
2021/08/13 08:46:34;;;;;;;8.60;3.50;;;;;;;22.60;54.61;102304.00;4982387;28;20041;-71
2021/08/13 08:49:00;;;;;;;12.25;3.88;;;;;;;22.68;53.98;102307.94;4976529;28;20420;-71
2021/08/13 08:51:26;;;;;;;10.93;3.53;;;;;;;23.11;52.65;102306.22;4982830;28;20030;-70
2021/08/13 08:53:56;;;;;;;11.25;3.65;;;;;;;22.87;52.97;102310.34;4983921;28;20479;-71
2021/08/13 08:56:24;;;;;;;9.23;3.75;;;;;;;22.72;52.11;102316.63;4975529;28;20033;-70
2021/08/13 08:58:49;;;;;;;12.25;3.70;;;;;;;22.19;53.14;102334.88;4983116;28;20018;-70
2021/08/13 09:01:15;;;;;;;10.85;3.53;;;;;;;22.68;52.09;102321.28;4977120;28;20369;-70
2021/08/13 09:03:42;;;;;;;9.32;3.20;;;;;;;22.86;50.52;102326.47;4973308;28;20030;-71
2021/08/13 09:06:08;;;;;;;8.68;3.38;;;;;;;22.35;51.36;102321.47;4989294;28;20034;-70
2021/08/13 09:08:33;;;;;;;8.65;3.10;;;;;;;22.30;50.84;102316.44;4978882;28;20388;-70
2021/08/13 09:10:59;;;;;;;8.13;3.30;;;;;;;22.60;50.80;102323.59;4979383;28;20014;-71
2021/08/13 09:13:24;;;;;;;11.38;3.60;;;;;;;22.30;51.15;102319.09;4983445;28;20030;-71
2021/08/13 09:15:52;;;;;;;12.18;3.40;;;;;;;21.85;52.28;102332.38;4975544;28;20021;-70
2021/08/13 09:18:17;;;;;;;11.70;3.55;;;;;;;21.38;51.83;102326.03;4982619;28;20027;-71
2021/08/13 09:20:56;;;;;;;10.65;3.42;;;;;;;21.56;52.39;102313.53;4969678;28;20084;-70
2021/08/13 09:23:35;;;;;;;9.02;3.33;;;;;;;22.76;48.19;102323.53;4970928;28;20027;-71
2021/08/13 09:26:21;;;;;;;14.85;3.63;;;;;;;23.13;46.65;102331.91;4982348;28;20376;-71
2021/08/13 09:28:49;;;;;;;12.23;3.50;;;;;;;23.02;47.27;102323.69;4978097;28;20085;-71
2021/08/13 09:31:15;;;;;;;14.35;3.63;;;;;;;22.99;47.75;102330.09;4975469;28;20045;-71
2021/08/13 09:33:42;;;;;;;15.35;3.53;;;;;;;23.61;47.20;102338.78;4980194;28;20054;-71
2021/08/13 09:36:07;;;;;;;12.73;3.95;;;;;;;23.98;46.48;102339.09;4984737;28;20145;-70
2021/08/13 09:38:33;;;;;;;10.70;3.50;;;;;;;23.89;46.83;102353.03;4971831;28;20477;-70
2021/08/13 09:41:06;;;;;;;16.35;3.80;;;;;;;23.15;48.55;102345.22;4969626;28;20034;-70
2021/08/13 09:43:31;;;;;;;15.63;3.88;;;;;;;23.67;47.13;102352.63;4998408;28;20019;-70
2021/08/13 09:46:05;;;;;;;14.30;4.13;;;;;;;23.84;45.99;102342.63;4979810;28;20037;-70
2021/08/13 09:48:31;;;;;;;11.98;4.20;;;;;;;24.28;45.46;102356.75;4973880;28;20154;-70
2021/08/13 09:50:56;;;;;;;10.68;3.72;;;;;;;24.77;43.83;102350.72;4969699;28;20134;-71
2021/08/13 09:53:21;;;;;;;13.73;3.92;;;;;;;24.84;43.78;102367.25;4970239;28;20019;-71
2021/08/13 09:55:47;;;;;;;13.77;3.47;;;;;;;24.32;44.25;102359.13;4970349;28;20035;-71
2021/08/13 09:58:23;;;;;;;12.35;3.47;;;;;;;23.89;45.48;102374.47;4971363;28;20468;-70
2021/08/13 10:00:50;;;;;;;13.60;4.00;;;;;;;23.28;46.79;102370.28;4969183;28;20130;-71
2021/08/13 10:03:15;;;;;;;11.02;3.50;;;;;;;23.27;47.19;102367.69;4968707;28;20074;-70
2021/08/13 10:05:41;;;;;;;12.55;3.58;;;;;;;23.79;45.99;102358.13;4976247;28;20133;-71
2021/08/13 10:08:07;;;;;;;13.10;3.83;;;;;;;24.79;44.14;102355.97;4976532;28;20502;-71
2021/08/13 10:10:38;;;;;;;13.80;3.60;;;;;;;24.85;42.17;102355.56;4970966;28;20098;-71
2021/08/13 10:13:05;;;;;;;10.85;3.75;;;;;;;24.49;43.32;102355.28;4984295;28;20133;-70
2021/08/13 10:15:40;;;;;;;12.35;3.85;;;;;;;23.91;44.68;102372.56;4970591;28;20023;-71
2021/08/13 10:18:07;;;;;;;13.25;3.80;;;;;;;23.79;44.96;102364.38;4977977;28;20105;-72
2021/08/13 10:20:45;;;;;;;12.95;3.65;;;;;;;24.47;43.39;102364.38;4985343;28;20151;-72
2021/08/13 10:23:11;;;;;;;10.88;3.90;;;;;;;24.57;43.65;102351.22;4959018;28;20031;-72
2021/08/13 10:25:37;;;;;;;16.98;4.38;;;;;;;24.72;43.18;102354.69;4970383;28;20034;-71
2021/08/13 10:28:02;;;;;;;14.90;3.95;;;;;;;25.28;43.13;102367.78;4970927;28;20018;-71
2021/08/13 10:30:28;;;;;;;14.93;4.20;;;;;;;25.67;42.31;102363.19;4972084;28;20483;-71
2021/08/13 10:32:56;;;;;;;13.05;4.43;;;;;;;25.30;42.76;102364.00;4970360;28;20026;-70
2021/08/13 10:35:49;;;;;;;18.90;4.18;;;;;;;25.19;42.13;102358.53;4970607;28;20027;-70
2021/08/13 10:38:15;;;;;;;17.88;4.00;;;;;;;24.47;44.31;102359.91;4975831;28;20129;-71
2021/08/13 10:40:41;;;;;;;12.57;4.00;;;;;;;24.22;44.68;102358.00;4966575;28;20081;-71
2021/08/13 10:43:06;;;;;;;20.00;4.47;;;;;;;23.92;44.94;102379.69;4982711;28;20350;-70
2021/08/13 10:45:33;;;;;;;15.02;3.83;;;;;;;23.59;46.03;102365.66;4971122;28;20112;-70
2021/08/13 10:48:06;;;;;;;17.67;4.78;;;;;;;23.27;45.80;102370.38;4969655;28;20522;-70
2021/08/13 10:50:32;;;;;;;11.88;3.67;;;;;;;22.53;47.92;102381.91;4969639;28;20022;-71
2021/08/13 10:52:58;;;;;;;12.60;3.65;;;;;;;22.38;48.94;102380.16;4969822;28;20113;-70
2021/08/13 10:55:42;;;;;;;14.13;4.00;;;;;;;22.44;49.33;102376.25;4981582;28;20027;-75
2021/08/13 10:58:09;;;;;;;16.48;3.75;;;;;;;22.24;49.85;102380.94;4980136;28;20491;-71
2021/08/13 11:01:02;;;;;;;20.13;4.10;;;;;;;22.52;49.18;102364.13;4967513;28;20037;-72
2021/08/13 11:03:28;;;;;;;18.87;4.40;;;;;;;22.61;48.60;102372.56;4986515;28;20109;-71
2021/08/13 11:06:00;;;;;;;15.07;3.90;;;;;;;22.99;47.42;102370.25;4982237;28;20390;-70
2021/08/13 11:08:40;;;;;;;15.98;4.30;;;;;;;23.15;47.48;102378.19;4970288;28;20031;-71
2021/08/13 11:11:09;;;;;;;17.92;4.40;;;;;;;22.83;47.97;102383.69;4970000;28;20085;-71
2021/08/13 11:13:42;;;;;;;14.85;3.80;;;;;;;22.76;49.06;102379.69;4982349;28;20023;-71
2021/08/13 11:16:30;;;;;;;14.57;4.30;;;;;;;22.61;47.79;102372.56;4966317;28;20023;-71
2021/08/13 11:19:00;;;;;;;15.07;3.80;;;;;;;22.55;48.09;102376.47;4969345;28;20073;-70